createdAt,value
2018-12-12T00:02:12.445Z,100147.44
2018-12-12T00:05:16.217Z,100156.32
2018-12-12T00:08:17.873Z,100150.53
2018-12-12T00:11:19.666Z,100157.69
2018-12-12T00:14:21.357Z,100164.56
2018-12-12T00:17:23.061Z,100162.06
2018-12-12T00:20:24.758Z,100170.81
2018-12-12T00:23:26.596Z,100177.59
2018-12-12T00:26:28.224Z,100177.27
2018-12-12T00:29:30.027Z,100181.88
2018-12-12T00:32:31.770Z,100175.63
2018-12-12T00:35:33.466Z,100182.77
2018-12-12T00:38:35.208Z,100190.38
2018-12-12T00:41:36.891Z,100186.31
2018-12-12T00:44:38.697Z,100196.67
2018-12-12T00:47:40.491Z,100192.36
2018-12-12T00:50:42.107Z,100202.30
2018-12-12T00:53:43.852Z,100195.23
2018-12-12T00:56:45.985Z,100202.55
2018-12-12T00:59:47.719Z,100207.20
2018-12-12T01:02:49.583Z,100212.33
2018-12-12T01:05:51.247Z,100211.27
2018-12-12T01:08:52.990Z,100212.09
2018-12-12T01:12:01.233Z,100212.09
2018-12-12T01:15:03.057Z,100212.87
2018-12-12T01:18:04.817Z,100222.48
2018-12-12T01:21:06.564Z,100216.32
2018-12-12T01:24:08.378Z,100221.00
2018-12-12T01:27:10.116Z,100216.77
2018-12-12T01:30:11.822Z,100211.19
2018-12-12T01:33:13.556Z,100224.75
2018-12-12T01:36:15.217Z,100224.38
2018-12-12T01:39:16.977Z,100220.39
2018-12-12T01:42:18.657Z,100222.07
2018-12-12T01:45:20.357Z,100222.44
2018-12-12T01:48:22.030Z,100227.79
2018-12-12T01:51:23.758Z,100224.91
2018-12-12T01:54:26.024Z,100227.95
2018-12-12T01:57:27.738Z,100229.14
2018-12-12T02:00:29.456Z,100231.94
2018-12-12T02:03:31.179Z,100235.11
2018-12-12T02:06:32.897Z,100231.86
2018-12-12T02:09:34.617Z,100238.56
2018-12-12T02:12:36.318Z,100241.36
2018-12-12T02:15:37.986Z,100246.25
2018-12-12T02:18:40.770Z,100241.65
2018-12-12T02:21:42.467Z,100247.40
2018-12-12T02:24:44.377Z,100247.98
2018-12-12T02:27:46.308Z,100248.30
2018-12-12T02:30:48.131Z,100251.77
2018-12-12T02:33:49.862Z,100253.13
2018-12-12T02:36:51.520Z,100255.55
2018-12-12T02:39:53.228Z,100253.41
2018-12-12T02:42:54.934Z,100256.73
2018-12-12T02:45:56.690Z,100256.12
2018-12-12T02:48:58.465Z,100254.77
2018-12-12T02:52:00.291Z,100254.31
2018-12-12T02:55:02.129Z,100250.86
2018-12-12T02:58:03.984Z,100258.79
2018-12-12T03:01:05.725Z,100254.48
2018-12-12T03:04:07.434Z,100259.83
2018-12-12T03:07:09.168Z,100259.00
2018-12-12T03:10:10.854Z,100264.30
2018-12-12T03:13:12.570Z,100269.19
2018-12-12T03:16:14.277Z,100268.83
2018-12-12T03:35:37.729Z,100294.98
2018-12-12T03:38:39.458Z,100300.24
2018-12-12T03:41:41.237Z,100301.75
2018-12-12T03:44:43.077Z,100298.09
2018-12-12T03:47:44.809Z,100300.66
2018-12-12T03:50:46.585Z,100303.28
2018-12-12T03:53:48.338Z,100311.78
2018-12-12T03:56:50.105Z,100309.33
2018-12-12T03:59:51.922Z,100313.52
2018-12-12T04:02:53.725Z,100316.16
2018-12-12T04:05:56.241Z,100315.16
2018-12-12T04:08:57.974Z,100329.30
2018-12-12T04:11:59.665Z,100324.64
2018-12-12T04:15:01.447Z,100326.00
2018-12-12T04:18:03.165Z,100328.80
2018-12-12T04:21:05.011Z,100329.74
2018-12-12T04:24:06.795Z,100338.94
2018-12-12T04:27:08.574Z,100334.87
2018-12-12T04:30:10.467Z,100337.88
2018-12-12T04:33:12.335Z,100336.22
2018-12-12T04:36:14.255Z,100346.23
2018-12-12T04:39:15.999Z,100346.33
2018-12-12T04:42:17.717Z,100353.41
2018-12-12T04:45:19.370Z,100357.28
2018-12-12T04:48:21.086Z,100358.44
2018-12-12T04:51:22.865Z,100358.53
2018-12-12T04:54:24.596Z,100366.04
2018-12-12T04:57:26.350Z,100366.66
2018-12-12T05:00:28.060Z,100366.23
2018-12-12T05:03:29.735Z,100361.48
2018-12-12T05:06:31.529Z,100372.13
2018-12-12T05:09:33.322Z,100373.78
2018-12-12T05:12:35.057Z,100381.80
2018-12-12T05:15:36.811Z,100389.75
2018-12-12T05:18:38.532Z,100394.26
2018-12-12T05:21:40.257Z,100394.55
2018-12-12T05:24:42.015Z,100402.87
2018-12-12T05:27:43.737Z,100404.52
2018-12-12T05:30:45.530Z,100411.01
2018-12-12T05:33:47.331Z,100414.94
2018-12-12T05:36:51.189Z,100418.27
2018-12-12T05:41:57.620Z,100423.31
2018-12-12T05:44:59.483Z,100427.81
2018-12-12T05:48:01.236Z,100426.89
2018-12-12T05:51:03.015Z,100429.17
2018-12-12T05:54:04.911Z,100431.30
2018-12-12T05:57:08.267Z,100437.39
2018-12-12T06:00:12.108Z,100444.89
2018-12-12T06:03:13.879Z,100446.87
2018-12-12T06:06:15.747Z,100447.41
2018-12-12T06:09:17.623Z,100453.13
2018-12-12T06:12:19.426Z,100452.49
2018-12-12T06:15:21.157Z,100454.44
2018-12-12T06:18:22.885Z,100459.00
2018-12-12T06:21:24.722Z,100468.38
2018-12-12T06:24:26.454Z,100462.00
2018-12-12T06:27:28.283Z,100471.15
2018-12-12T06:30:29.999Z,100474.87
2018-12-12T06:33:31.766Z,100474.25
2018-12-12T06:36:33.484Z,100483.15
2018-12-12T06:39:35.236Z,100487.42
2018-12-12T06:42:37.015Z,100494.01
2018-12-12T06:45:45.817Z,100495.92
2018-12-12T06:48:47.573Z,100492.30
2018-12-12T06:51:49.330Z,100490.55
2018-12-12T06:54:51.128Z,100495.96
2018-12-12T06:57:52.857Z,100501.19
2018-12-12T07:00:54.635Z,100502.67
2018-12-12T07:03:56.326Z,100509.15
2018-12-12T07:06:58.623Z,100516.42
2018-12-12T07:13:13.785Z,100524.13
2018-12-12T07:16:15.536Z,100528.63
2018-12-12T07:19:17.251Z,100538.20
2018-12-12T07:22:19.235Z,100532.03
2018-12-12T07:25:21.007Z,100536.42
2018-12-12T07:28:22.777Z,100540.47
2018-12-12T07:31:24.509Z,100543.80
2018-12-12T07:34:26.352Z,100550.05
2018-12-12T07:37:28.361Z,100549.33
2018-12-12T07:40:30.331Z,100552.44
2018-12-12T07:43:34.200Z,100561.20
2018-12-12T07:46:42.457Z,100568.48
2018-12-12T07:49:46.370Z,100571.78
2018-12-12T07:52:54.415Z,100577.17
2018-12-12T07:55:56.102Z,100571.12
2018-12-12T07:58:58.960Z,100570.53
2018-12-12T08:02:01.228Z,100582.50
2018-12-12T08:05:03.136Z,100574.46
2018-12-12T08:08:04.960Z,100584.45
2018-12-12T08:11:06.786Z,100584.02
2018-12-12T08:14:08.567Z,100587.99
2018-12-12T08:17:10.393Z,100585.28
2018-12-12T08:20:12.124Z,100592.35
2018-12-12T08:23:14.291Z,100598.11
2018-12-12T08:26:16.177Z,100602.38
2018-12-12T08:29:17.956Z,100608.43
2018-12-12T08:35:37.267Z,100614.39
2018-12-12T08:38:39.039Z,100616.91
2018-12-12T08:41:40.891Z,100621.70
2018-12-12T08:44:42.599Z,100619.42
2018-12-12T08:47:44.381Z,100623.41
2018-12-12T08:50:46.136Z,100628.94
2018-12-12T08:53:48.025Z,100635.80
2018-12-12T08:56:50.813Z,100632.05
2018-12-12T08:59:52.601Z,100640.82
2018-12-12T09:02:55.482Z,100644.56
2018-12-12T09:05:57.253Z,100645.81
2018-12-12T09:08:58.998Z,100646.62
2018-12-12T09:12:00.791Z,100650.16
2018-12-12T09:15:02.770Z,100651.19
2018-12-12T09:18:05.577Z,100653.47
2018-12-12T09:21:14.234Z,100655.16
2018-12-12T09:24:15.991Z,100649.06
2018-12-12T09:27:17.728Z,100653.00
2018-12-12T09:30:19.491Z,100667.73
2018-12-12T09:33:24.730Z,100668.75
2018-12-12T09:36:29.100Z,100667.39
2018-12-12T09:39:30.901Z,100669.38
2018-12-12T09:42:32.899Z,100676.30
2018-12-12T09:45:34.596Z,100675.44
2018-12-12T09:48:36.364Z,100678.78
2018-12-12T09:51:38.114Z,100675.44
2018-12-12T09:54:42.043Z,100689.11
2018-12-12T09:57:43.783Z,100670.94
2018-12-12T10:00:45.482Z,100676.58
2018-12-12T10:03:47.682Z,100677.69
2018-12-12T10:06:56.411Z,100683.17
2018-12-12T10:09:58.300Z,100681.42
2018-12-12T10:13:00.162Z,100676.09
2018-12-12T10:16:01.923Z,100672.41
2018-12-12T10:19:03.637Z,100666.04
2018-12-12T10:22:05.453Z,100668.77
2018-12-12T10:25:07.212Z,100671.33
2018-12-12T10:28:10.058Z,100674.18
2018-12-12T10:31:18.702Z,100673.45
2018-12-12T10:34:27.261Z,100676.20
2018-12-12T10:37:29.021Z,100672.56
2018-12-12T10:40:30.739Z,100683.84
2018-12-12T10:43:32.508Z,100672.03
2018-12-12T10:46:34.765Z,100666.04
2018-12-12T10:49:36.479Z,100670.70
2018-12-12T10:52:38.268Z,100675.26
2018-12-12T10:55:40.057Z,100675.95
2018-12-12T10:58:41.850Z,100671.63
2018-12-12T11:01:46.642Z,100676.56
2018-12-12T11:04:48.608Z,100676.06
2018-12-12T11:07:50.484Z,100672.61
2018-12-12T11:10:52.425Z,100678.16
2018-12-12T11:13:54.423Z,100677.51
2018-12-12T11:16:56.179Z,100685.73
2018-12-12T11:19:58.029Z,100686.06
2018-12-12T11:22:59.830Z,100693.34
2018-12-12T11:26:01.600Z,100700.66
2018-12-12T11:29:03.365Z,100695.72
2018-12-12T11:32:05.076Z,100691.44
2018-12-12T11:35:06.894Z,100690.63
2018-12-12T11:38:08.607Z,100695.63
2018-12-12T11:41:10.430Z,100693.64
2018-12-12T11:44:12.203Z,100697.92
2018-12-12T11:47:14.000Z,100700.30
2018-12-12T11:50:15.707Z,100690.70
2018-12-12T11:53:17.454Z,100696.93
2018-12-12T11:56:19.134Z,100696.18
2018-12-12T11:59:20.963Z,100699.93
2018-12-12T12:02:22.725Z,100703.22
2018-12-12T12:05:24.463Z,100697.69
2018-12-12T12:08:26.217Z,100701.63
2018-12-12T12:11:28.146Z,100707.78
2018-12-12T12:14:31.937Z,100705.89
2018-12-12T12:17:33.606Z,100712.02
2018-12-12T12:20:35.448Z,100709.50
2018-12-12T12:23:37.235Z,100718.37
2018-12-12T12:26:39.054Z,100714.30
2018-12-12T12:29:40.824Z,100720.16
2018-12-12T12:32:42.615Z,100721.52
2018-12-12T12:35:44.386Z,100717.94
2018-12-12T12:38:46.117Z,100720.75
2018-12-12T12:41:48.000Z,100719.49
2018-12-12T12:44:50.085Z,100725.16
2018-12-12T12:47:51.857Z,100731.22
2018-12-12T12:50:53.683Z,100727.05
2018-12-12T12:53:55.528Z,100729.80
2018-12-12T12:56:57.418Z,100728.97
2018-12-12T12:59:59.165Z,100729.00
2018-12-12T13:03:00.934Z,100738.20
2018-12-12T13:06:02.682Z,100739.27
2018-12-12T13:09:05.960Z,100738.44
2018-12-12T13:15:29.269Z,100737.30
2018-12-12T13:18:31.141Z,100745.44
2018-12-12T13:21:32.935Z,100744.61
2018-12-12T13:24:35.139Z,100750.97
2018-12-12T13:27:36.946Z,100746.19
2018-12-12T13:30:39.719Z,100753.69
2018-12-12T13:33:41.488Z,100756.83
2018-12-12T13:36:43.245Z,100759.22
2018-12-12T13:39:44.995Z,100760.91
2018-12-12T13:42:46.782Z,100761.84
2018-12-12T13:45:48.527Z,100763.19
2018-12-12T13:48:51.380Z,100764.31
2018-12-12T13:51:53.147Z,100761.84
2018-12-12T13:54:54.961Z,100772.25
2018-12-12T13:57:58.217Z,100764.55
2018-12-12T14:01:00.126Z,100772.78
2018-12-12T14:04:01.953Z,100785.83
2018-12-12T14:07:03.752Z,100783.42
2018-12-12T14:10:05.499Z,100782.72
2018-12-12T14:13:07.243Z,100782.39
2018-12-12T14:16:09.072Z,100787.09
2018-12-12T14:19:10.869Z,100783.33
2018-12-12T14:22:12.802Z,100785.40
2018-12-12T14:25:14.638Z,100783.94
2018-12-12T14:28:16.347Z,100784.99
2018-12-12T14:31:18.076Z,100785.71
2018-12-12T14:34:19.854Z,100796.97
2018-12-12T14:37:21.583Z,100795.81
2018-12-12T14:40:23.446Z,100797.91
2018-12-12T14:43:25.257Z,100797.05
2018-12-12T14:46:27.015Z,100795.88
2018-12-12T14:49:28.771Z,100803.48
2018-12-12T14:52:30.581Z,100800.65
2018-12-12T14:55:32.436Z,100797.89
2018-12-12T14:58:34.161Z,100806.30
2018-12-12T15:01:35.940Z,100809.58
2018-12-12T15:04:37.689Z,100811.59
2018-12-12T15:07:39.403Z,100815.88
2018-12-12T15:10:41.105Z,100815.08
2018-12-12T15:13:43.274Z,100822.40
2018-12-12T15:16:45.114Z,100819.02
2018-12-12T15:19:46.968Z,100823.13
2018-12-12T15:22:48.815Z,100832.08
2018-12-12T15:25:50.651Z,100835.23
2018-12-12T15:28:52.387Z,100836.41
2018-12-12T15:31:54.200Z,100835.27
2018-12-12T17:13:55.236Z,100879.55
2018-12-12T17:16:57.175Z,100886.23
2018-12-12T17:20:00.195Z,100889.78
2018-12-12T17:23:01.861Z,100893.33
2018-12-12T17:26:03.692Z,100896.02
2018-12-12T17:29:07.374Z,100902.30
2018-12-12T17:32:10.966Z,100911.87
2018-12-12T17:35:13.030Z,100911.08
2018-12-12T17:38:15.198Z,100903.43
2018-12-12T17:41:17.069Z,100913.78
2018-12-12T17:44:18.809Z,100909.72
2018-12-12T17:47:20.649Z,100915.03
2018-12-12T17:50:22.590Z,100908.97
2018-12-12T17:53:24.539Z,100908.25
2018-12-12T17:56:26.478Z,100907.42
2018-12-12T17:59:28.407Z,100910.94
2018-12-12T18:02:30.847Z,100912.70
2018-12-12T18:05:39.128Z,100910.82
2018-12-12T18:08:40.978Z,100916.44
2018-12-12T18:11:43.979Z,100916.21
2018-12-12T18:14:46.710Z,100918.92
2018-12-12T18:17:50.791Z,100917.03
2018-12-12T18:20:52.997Z,100919.97
2018-12-12T18:23:56.803Z,100927.45
2018-12-12T18:26:59.027Z,100922.03
2018-12-12T18:30:00.875Z,100924.51
2018-12-12T18:33:04.803Z,100923.02
2018-12-12T18:36:25.475Z,100929.33
2018-12-12T18:39:27.415Z,100933.27
2018-12-12T18:42:29.227Z,100932.03
2018-12-12T18:45:32.000Z,100931.09
2018-12-12T18:48:35.257Z,100931.49
2018-12-12T18:51:40.267Z,100932.30
2018-12-12T18:54:42.012Z,100932.66
2018-12-12T18:57:45.940Z,100939.59
2018-12-12T19:00:47.821Z,100940.27
2018-12-12T19:03:49.712Z,100941.41
2018-12-12T19:06:53.273Z,100943.62
2018-12-12T19:13:13.171Z,100948.10
2018-12-12T19:16:15.020Z,100955.91
2018-12-12T19:19:16.940Z,100955.66
2018-12-12T19:22:19.357Z,100953.08
2018-12-12T19:25:21.326Z,100949.67
2018-12-12T19:28:24.289Z,100956.31
2018-12-12T19:31:27.110Z,100953.88
2018-12-12T19:34:29.048Z,100957.20
2018-12-12T19:37:33.872Z,100957.95
2018-12-12T19:40:35.659Z,100960.28
2018-12-12T19:43:38.292Z,100965.29
2018-12-12T19:46:41.499Z,100964.44
2018-12-12T19:49:45.464Z,100965.47
2018-12-12T19:52:47.957Z,100973.55
2018-12-12T19:55:49.769Z,100968.44
2018-12-12T19:58:51.566Z,100974.52
2018-12-12T20:01:54.430Z,100973.20
2018-12-12T20:04:56.771Z,100980.42
2018-12-12T20:07:59.820Z,100984.19
2018-12-12T20:11:02.541Z,100984.42
2018-12-12T20:14:05.531Z,100986.00
2018-12-12T20:17:08.247Z,100989.66
2018-12-12T20:20:10.111Z,100985.09
2018-12-12T20:23:13.901Z,100989.17
2018-12-12T20:26:16.314Z,100992.63
2018-12-12T20:29:18.118Z,100988.67
2018-12-12T20:32:20.621Z,100994.70
2018-12-12T20:35:22.422Z,100996.06
2018-12-12T20:38:25.263Z,100997.23
2018-12-12T20:41:27.520Z,101000.47
2018-12-12T20:44:29.543Z,100996.06
2018-12-12T20:47:32.387Z,100996.06
2018-12-12T20:50:34.577Z,100996.48
2018-12-12T20:53:36.405Z,100998.25
2018-12-12T20:56:38.263Z,100993.77
2018-12-12T20:59:40.578Z,100998.55
2018-12-12T21:02:42.367Z,100995.80
2018-12-12T21:05:44.165Z,101004.18
2018-12-12T21:08:47.084Z,101004.56
2018-12-12T21:11:48.983Z,101004.27
2018-12-12T21:14:50.759Z,101003.16
2018-12-12T21:17:52.596Z,100998.14
2018-12-12T21:20:55.146Z,100999.16
2018-12-12T21:23:56.928Z,101001.62
2018-12-12T21:26:59.636Z,100998.26
2018-12-12T21:30:01.554Z,100992.53
2018-12-12T21:33:03.248Z,100990.66
2018-12-12T21:36:05.038Z,100992.36
2018-12-12T21:39:07.386Z,100993.91
2018-12-12T21:42:10.367Z,100991.67
2018-12-12T21:45:12.176Z,100993.58
2018-12-12T21:48:16.831Z,100995.56
2018-12-12T21:51:18.625Z,101004.88
2018-12-12T21:54:21.380Z,100998.16
2018-12-12T21:57:23.727Z,100997.94
2018-12-12T22:00:25.466Z,101001.39
2018-12-12T22:03:27.199Z,101003.99
2018-12-12T22:06:28.876Z,101000.00
2018-12-12T22:09:30.728Z,100996.86
2018-12-12T22:12:32.432Z,100989.73
2018-12-12T22:15:34.134Z,100993.61
2018-12-12T22:18:35.879Z,100986.53
2018-12-12T22:21:37.655Z,100996.66
2018-12-12T22:24:39.426Z,100995.23
2018-12-12T22:27:41.462Z,100992.02
2018-12-12T22:30:43.324Z,100987.37
2018-12-12T22:33:45.098Z,100992.09
2018-12-12T22:36:46.820Z,100996.51
2018-12-12T22:39:48.579Z,101000.47
2018-12-12T22:42:50.323Z,100997.34
2018-12-12T22:45:52.067Z,100999.87
2018-12-12T22:48:53.873Z,100991.02
2018-12-12T22:51:55.822Z,100992.91
2018-12-12T22:54:57.572Z,100996.89
2018-12-12T22:57:59.305Z,100993.23
2018-12-12T23:01:03.945Z,101000.03
2018-12-12T23:04:05.757Z,100997.95
2018-12-12T23:07:07.528Z,100992.96
2018-12-12T23:10:09.246Z,100994.00
2018-12-12T23:13:10.976Z,100990.87
2018-12-12T23:16:12.695Z,100989.39
2018-12-12T23:19:14.487Z,100995.38
2018-12-12T23:22:16.289Z,100988.77
2018-12-12T23:25:18.112Z,100984.69
2018-12-12T23:28:19.872Z,100983.34
2018-12-12T23:31:21.582Z,100985.86
2018-12-12T23:34:23.295Z,100977.69
2018-12-12T23:37:25.026Z,100982.06
2018-12-12T23:40:26.784Z,100972.95
2018-12-12T23:43:28.498Z,100972.66
2018-12-12T23:46:30.259Z,100968.17
2018-12-12T23:49:31.967Z,100965.75
2018-12-12T23:52:33.875Z,100965.23
2018-12-12T23:55:36.752Z,100963.89
2018-12-12T23:58:38.520Z,100958.25
